sensor_id;sensor_type;location;lat;lon;timestamp;P1;durP1;ratioP1;P2;durP2;ratioP2
5483;SDS011;2764;48.794;8.326;2023-07-29T00:00:21;2.73;;;0.87;;
5483;SDS011;2764;48.794;8.326;2023-07-29T00:01:23;2.80;;;0.90;;
5483;SDS011;2764;48.794;8.326;2023-07-29T00:02:24;3.03;;;1.10;;
5483;SDS011;2764;48.794;8.326;2023-07-29T00:03:26;1.80;;;1.00;;
5483;SDS011;2764;48.794;8.326;2023-07-29T00:04:28;1.43;;;0.90;;
5483;SDS011;2764;48.794;8.326;2023-07-29T00:05:30;1.30;;;1.20;;
5483;SDS011;2764;48.794;8.326;2023-07-29T00:06:32;1.17;;;0.93;;
5483;SDS011;2764;48.794;8.326;2023-07-29T00:07:34;2.97;;;0.77;;
5483;SDS011;2764;48.794;8.326;2023-07-29T00:08:35;1.97;;;0.83;;
5483;SDS011;2764;48.794;8.326;2023-07-29T00:09:37;2.00;;;0.93;;
5483;SDS011;2764;48.794;8.326;2023-07-29T00:10:39;6.10;;;1.50;;
5483;SDS011;2764;48.794;8.326;2023-07-29T00:11:41;5.30;;;1.23;;
5483;SDS011;2764;48.794;8.326;2023-07-29T00:12:42;4.97;;;1.30;;
5483;SDS011;2764;48.794;8.326;2023-07-29T00:13:44;1.53;;;1.00;;
5483;SDS011;2764;48.794;8.326;2023-07-29T00:14:45;6.67;;;1.10;;
5483;SDS011;2764;48.794;8.326;2023-07-29T00:15:47;3.80;;;1.00;;
5483;SDS011;2764;48.794;8.326;2023-07-29T00:16:49;1.27;;;1.17;;
5483;SDS011;2764;48.794;8.326;2023-07-29T00:17:50;1.60;;;1.13;;
5483;SDS011;2764;48.794;8.326;2023-07-29T00:18:52;7.17;;;1.20;;
5483;SDS011;2764;48.794;8.326;2023-07-29T00:19:54;1.17;;;0.70;;
5483;SDS011;2764;48.794;8.326;2023-07-29T00:20:55;1.90;;;1.00;;
5483;SDS011;2764;48.794;8.326;2023-07-29T00:21:57;5.03;;;0.90;;
5483;SDS011;2764;48.794;8.326;2023-07-29T00:22:59;6.83;;;0.97;;
5483;SDS011;2764;48.794;8.326;2023-07-29T00:24:01;1.90;;;1.10;;
5483;SDS011;2764;48.794;8.326;2023-07-29T00:25:03;1.83;;;1.00;;
5483;SDS011;2764;48.794;8.326;2023-07-29T00:26:04;2.07;;;0.97;;
5483;SDS011;2764;48.794;8.326;2023-07-29T00:27:06;2.30;;;1.00;;
5483;SDS011;2764;48.794;8.326;2023-07-29T00:28:08;7.00;;;1.00;;
5483;SDS011;2764;48.794;8.326;2023-07-29T00:29:10;5.27;;;1.30;;
5483;SDS011;2764;48.794;8.326;2023-07-29T00:30:12;4.30;;;1.03;;
5483;SDS011;2764;48.794;8.326;2023-07-29T00:31:13;1.40;;;1.30;;
5483;SDS011;2764;48.794;8.326;2023-07-29T00:32:15;3.57;;;1.23;;
5483;SDS011;2764;48.794;8.326;2023-07-29T00:33:17;1.27;;;1.07;;
5483;SDS011;2764;48.794;8.326;2023-07-29T00:34:18;5.07;;;1.10;;
5483;SDS011;2764;48.794;8.326;2023-07-29T00:35:21;0.80;;;0.80;;
5483;SDS011;2764;48.794;8.326;2023-07-29T00:36:22;3.63;;;1.00;;
5483;SDS011;2764;48.794;8.326;2023-07-29T00:37:24;0.83;;;0.83;;
5483;SDS011;2764;48.794;8.326;2023-07-29T00:38:25;1.33;;;0.90;;
5483;SDS011;2764;48.794;8.326;2023-07-29T00:39:27;1.00;;;1.00;;
5483;SDS011;2764;48.794;8.326;2023-07-29T00:40:29;0.90;;;0.90;;
5483;SDS011;2764;48.794;8.326;2023-07-29T00:41:31;5.60;;;1.20;;
5483;SDS011;2764;48.794;8.326;2023-07-29T00:42:32;3.43;;;0.90;;
5483;SDS011;2764;48.794;8.326;2023-07-29T00:43:34;4.60;;;1.40;;
5483;SDS011;2764;48.794;8.326;2023-07-29T00:44:35;1.27;;;1.03;;
5483;SDS011;2764;48.794;8.326;2023-07-29T00:45:37;5.37;;;1.00;;
5483;SDS011;2764;48.794;8.326;2023-07-29T00:46:39;2.80;;;1.03;;
5483;SDS011;2764;48.794;8.326;2023-07-29T00:47:42;1.53;;;0.93;;
5483;SDS011;2764;48.794;8.326;2023-07-29T00:48:44;1.30;;;1.20;;
5483;SDS011;2764;48.794;8.326;2023-07-29T00:49:46;2.10;;;1.13;;
5483;SDS011;2764;48.794;8.326;2023-07-29T00:50:47;2.90;;;1.30;;
5483;SDS011;2764;48.794;8.326;2023-07-29T00:51:49;1.03;;;0.93;;
5483;SDS011;2764;48.794;8.326;2023-07-29T00:52:51;1.03;;;0.93;;
5483;SDS011;2764;48.794;8.326;2023-07-29T00:53:52;2.70;;;0.70;;
5483;SDS011;2764;48.794;8.326;2023-07-29T00:54:54;2.17;;;1.37;;
5483;SDS011;2764;48.794;8.326;2023-07-29T00:55:55;1.07;;;0.97;;
5483;SDS011;2764;48.794;8.326;2023-07-29T00:56:57;3.90;;;1.10;;
5483;SDS011;2764;48.794;8.326;2023-07-29T00:57:59;1.17;;;0.90;;
5483;SDS011;2764;48.794;8.326;2023-07-29T00:59:01;1.20;;;1.10;;
5483;SDS011;2764;48.794;8.326;2023-07-29T01:00:03;1.23;;;1.00;;
5483;SDS011;2764;48.794;8.326;2023-07-29T01:01:05;1.20;;;0.97;;
5483;SDS011;2764;48.794;8.326;2023-07-29T01:02:07;2.30;;;1.10;;
5483;SDS011;2764;48.794;8.326;2023-07-29T01:03:09;1.10;;;1.00;;
5483;SDS011;2764;48.794;8.326;2023-07-29T01:04:11;2.10;;;0.90;;
5483;SDS011;2764;48.794;8.326;2023-07-29T01:05:13;0.80;;;0.80;;
5483;SDS011;2764;48.794;8.326;2023-07-29T01:08:31;1.00;;;0.97;;
5483;SDS011;2764;48.794;8.326;2023-07-29T01:09:48;2.20;;;0.87;;
5483;SDS011;2764;48.794;8.326;2023-07-29T01:11:01;2.60;;;1.00;;
5483;SDS011;2764;48.794;8.326;2023-07-29T01:14:32;4.20;;;1.17;;
5483;SDS011;2764;48.794;8.326;2023-07-29T01:16:52;2.77;;;0.90;;
5483;SDS011;2764;48.794;8.326;2023-07-29T01:17:56;1.00;;;1.00;;
5483;SDS011;2764;48.794;8.326;2023-07-29T01:19:01;0.93;;;0.93;;
5483;SDS011;2764;48.794;8.326;2023-07-29T01:20:09;1.20;;;1.10;;
5483;SDS011;2764;48.794;8.326;2023-07-29T01:21:13;4.00;;;1.30;;
5483;SDS011;2764;48.794;8.326;2023-07-29T01:22:15;3.80;;;1.10;;
5483;SDS011;2764;48.794;8.326;2023-07-29T01:23:23;1.30;;;1.13;;
5483;SDS011;2764;48.794;8.326;2023-07-29T01:24:24;1.13;;;1.00;;
5483;SDS011;2764;48.794;8.326;2023-07-29T01:25:26;2.20;;;1.37;;
5483;SDS011;2764;48.794;8.326;2023-07-29T01:26:28;2.30;;;1.20;;
5483;SDS011;2764;48.794;8.326;2023-07-29T01:27:30;3.70;;;1.00;;
5483;SDS011;2764;48.794;8.326;2023-07-29T01:28:32;2.77;;;1.40;;
5483;SDS011;2764;48.794;8.326;2023-07-29T01:29:34;1.07;;;1.07;;
5483;SDS011;2764;48.794;8.326;2023-07-29T01:30:38;1.23;;;1.13;;
5483;SDS011;2764;48.794;8.326;2023-07-29T01:31:42;4.77;;;1.43;;
5483;SDS011;2764;48.794;8.326;2023-07-29T01:32:53;1.40;;;1.30;;
5483;SDS011;2764;48.794;8.326;2023-07-29T01:33:59;0.90;;;0.90;;
5483;SDS011;2764;48.794;8.326;2023-07-29T01:35:06;2.80;;;1.20;;
5483;SDS011;2764;48.794;8.326;2023-07-29T01:36:12;2.00;;;1.90;;
5483;SDS011;2764;48.794;8.326;2023-07-29T01:37:17;1.00;;;1.00;;
5483;SDS011;2764;48.794;8.326;2023-07-29T01:38:38;1.17;;;1.17;;
5483;SDS011;2764;48.794;8.326;2023-07-29T01:39:42;1.30;;;1.10;;
5483;SDS011;2764;48.794;8.326;2023-07-29T01:40:45;2.07;;;1.10;;
5483;SDS011;2764;48.794;8.326;2023-07-29T01:41:47;3.50;;;1.23;;
5483;SDS011;2764;48.794;8.326;2023-07-29T01:42:49;4.30;;;1.47;;
5483;SDS011;2764;48.794;8.326;2023-07-29T01:43:52;1.87;;;1.50;;
5483;SDS011;2764;48.794;8.326;2023-07-29T01:44:54;4.97;;;1.40;;
5483;SDS011;2764;48.794;8.326;2023-07-29T01:45:56;1.40;;;1.27;;
5483;SDS011;2764;48.794;8.326;2023-07-29T01:46:59;3.33;;;1.10;;
5483;SDS011;2764;48.794;8.326;2023-07-29T01:48:01;1.20;;;1.10;;
5483;SDS011;2764;48.794;8.326;2023-07-29T01:49:02;1.80;;;1.13;;
5483;SDS011;2764;48.794;8.326;2023-07-29T01:50:04;2.00;;;1.27;;
5483;SDS011;2764;48.794;8.326;2023-07-29T01:51:06;2.70;;;1.13;;
5483;SDS011;2764;48.794;8.326;2023-07-29T01:52:08;1.40;;;1.40;;
5483;SDS011;2764;48.794;8.326;2023-07-29T01:53:10;1.10;;;1.10;;
5483;SDS011;2764;48.794;8.326;2023-07-29T01:54:11;1.63;;;1.07;;
5483;SDS011;2764;48.794;8.326;2023-07-29T01:55:15;3.47;;;1.13;;
5483;SDS011;2764;48.794;8.326;2023-07-29T01:56:17;1.20;;;1.17;;
5483;SDS011;2764;48.794;8.326;2023-07-29T01:57:18;1.60;;;1.30;;
5483;SDS011;2764;48.794;8.326;2023-07-29T01:58:20;1.47;;;1.30;;
5483;SDS011;2764;48.794;8.326;2023-07-29T01:59:21;8.00;;;1.60;;
5483;SDS011;2764;48.794;8.326;2023-07-29T02:00:26;2.43;;;1.33;;
5483;SDS011;2764;48.794;8.326;2023-07-29T02:01:27;1.10;;;1.10;;
5483;SDS011;2764;48.794;8.326;2023-07-29T02:02:29;1.57;;;1.10;;
5483;SDS011;2764;48.794;8.326;2023-07-29T02:03:31;10.10;;;1.10;;
5483;SDS011;2764;48.794;8.326;2023-07-29T02:04:32;8.63;;;1.97;;
5483;SDS011;2764;48.794;8.326;2023-07-29T02:05:34;1.63;;;1.30;;
5483;SDS011;2764;48.794;8.326;2023-07-29T02:06:36;3.60;;;1.00;;
5483;SDS011;2764;48.794;8.326;2023-07-29T02:07:38;7.80;;;1.40;;
5483;SDS011;2764;48.794;8.326;2023-07-29T02:08:40;2.83;;;1.50;;
5483;SDS011;2764;48.794;8.326;2023-07-29T02:09:42;1.30;;;0.83;;
5483;SDS011;2764;48.794;8.326;2023-07-29T02:10:43;1.67;;;1.20;;
5483;SDS011;2764;48.794;8.326;2023-07-29T02:11:46;1.20;;;1.20;;
5483;SDS011;2764;48.794;8.326;2023-07-29T02:12:48;3.47;;;1.10;;
5483;SDS011;2764;48.794;8.326;2023-07-29T02:13:49;1.40;;;1.30;;
5483;SDS011;2764;48.794;8.326;2023-07-29T02:14:51;3.37;;;1.50;;
5483;SDS011;2764;48.794;8.326;2023-07-29T02:15:53;0.93;;;0.87;;
5483;SDS011;2764;48.794;8.326;2023-07-29T02:16:54;3.73;;;1.50;;
5483;SDS011;2764;48.794;8.326;2023-07-29T02:17:56;1.90;;;1.20;;
5483;SDS011;2764;48.794;8.326;2023-07-29T02:18:57;0.97;;;0.97;;
5483;SDS011;2764;48.794;8.326;2023-07-29T02:19:59;1.63;;;1.03;;
5483;SDS011;2764;48.794;8.326;2023-07-29T02:21:00;3.53;;;1.10;;
5483;SDS011;2764;48.794;8.326;2023-07-29T02:22:02;3.57;;;1.10;;
5483;SDS011;2764;48.794;8.326;2023-07-29T02:23:04;5.20;;;1.47;;
5483;SDS011;2764;48.794;8.326;2023-07-29T02:24:06;1.23;;;1.03;;
5483;SDS011;2764;48.794;8.326;2023-07-29T02:25:07;1.10;;;1.00;;
5483;SDS011;2764;48.794;8.326;2023-07-29T02:26:09;1.33;;;1.27;;
5483;SDS011;2764;48.794;8.326;2023-07-29T02:27:11;1.10;;;1.07;;
5483;SDS011;2764;48.794;8.326;2023-07-29T02:28:12;3.07;;;1.17;;
5483;SDS011;2764;48.794;8.326;2023-07-29T02:29:14;2.23;;;1.07;;
5483;SDS011;2764;48.794;8.326;2023-07-29T02:30:15;4.30;;;1.13;;
5483;SDS011;2764;48.794;8.326;2023-07-29T02:31:20;2.63;;;1.53;;
5483;SDS011;2764;48.794;8.326;2023-07-29T02:32:22;2.50;;;0.80;;
5483;SDS011;2764;48.794;8.326;2023-07-29T02:33:24;1.33;;;1.23;;
5483;SDS011;2764;48.794;8.326;2023-07-29T02:34:26;9.33;;;1.23;;
5483;SDS011;2764;48.794;8.326;2023-07-29T02:35:27;3.13;;;1.20;;
5483;SDS011;2764;48.794;8.326;2023-07-29T02:36:29;1.57;;;1.33;;
5483;SDS011;2764;48.794;8.326;2023-07-29T02:37:30;2.40;;;1.20;;
5483;SDS011;2764;48.794;8.326;2023-07-29T02:38:32;1.10;;;1.00;;
5483;SDS011;2764;48.794;8.326;2023-07-29T02:39:34;3.03;;;1.60;;
5483;SDS011;2764;48.794;8.326;2023-07-29T02:40:35;4.10;;;1.40;;
5483;SDS011;2764;48.794;8.326;2023-07-29T02:41:37;5.30;;;1.27;;
5483;SDS011;2764;48.794;8.326;2023-07-29T02:42:38;5.73;;;1.23;;
5483;SDS011;2764;48.794;8.326;2023-07-29T02:43:41;2.43;;;0.97;;
5483;SDS011;2764;48.794;8.326;2023-07-29T02:44:43;2.73;;;1.00;;
5483;SDS011;2764;48.794;8.326;2023-07-29T02:45:44;4.87;;;0.93;;
5483;SDS011;2764;48.794;8.326;2023-07-29T02:46:46;2.10;;;1.13;;
5483;SDS011;2764;48.794;8.326;2023-07-29T02:47:48;3.13;;;1.20;;
5483;SDS011;2764;48.794;8.326;2023-07-29T02:48:50;1.23;;;1.13;;
5483;SDS011;2764;48.794;8.326;2023-07-29T02:49:52;1.63;;;1.17;;
5483;SDS011;2764;48.794;8.326;2023-07-29T02:50:53;1.00;;;0.90;;
5483;SDS011;2764;48.794;8.326;2023-07-29T02:51:55;1.10;;;1.10;;
5483;SDS011;2764;48.794;8.326;2023-07-29T02:52:57;5.30;;;0.90;;
5483;SDS011;2764;48.794;8.326;2023-07-29T02:53:59;1.40;;;1.30;;
5483;SDS011;2764;48.794;8.326;2023-07-29T02:55:00;1.27;;;1.17;;
5483;SDS011;2764;48.794;8.326;2023-07-29T02:56:02;1.83;;;0.97;;
5483;SDS011;2764;48.794;8.326;2023-07-29T02:57:04;1.30;;;1.20;;
5483;SDS011;2764;48.794;8.326;2023-07-29T02:58:06;2.00;;;1.00;;
5483;SDS011;2764;48.794;8.326;2023-07-29T02:59:07;2.10;;;0.90;;
5483;SDS011;2764;48.794;8.326;2023-07-29T03:00:09;2.40;;;1.30;;
5483;SDS011;2764;48.794;8.326;2023-07-29T03:01:12;2.50;;;0.87;;
5483;SDS011;2764;48.794;8.326;2023-07-29T03:02:13;2.63;;;1.17;;
5483;SDS011;2764;48.794;8.326;2023-07-29T03:03:17;8.43;;;0.97;;
5483;SDS011;2764;48.794;8.326;2023-07-29T03:04:20;8.13;;;1.10;;
5483;SDS011;2764;48.794;8.326;2023-07-29T03:05:22;4.93;;;1.57;;
5483;SDS011;2764;48.794;8.326;2023-07-29T03:06:24;1.00;;;1.00;;
5483;SDS011;2764;48.794;8.326;2023-07-29T03:07:26;4.30;;;1.00;;
5483;SDS011;2764;48.794;8.326;2023-07-29T03:08:27;1.40;;;1.27;;
5483;SDS011;2764;48.794;8.326;2023-07-29T03:09:29;2.03;;;1.20;;
5483;SDS011;2764;48.794;8.326;2023-07-29T03:10:31;1.63;;;1.20;;
5483;SDS011;2764;48.794;8.326;2023-07-29T03:11:32;0.83;;;0.80;;
5483;SDS011;2764;48.794;8.326;2023-07-29T03:12:34;7.03;;;1.40;;
5483;SDS011;2764;48.794;8.326;2023-07-29T03:13:35;1.57;;;1.40;;
5483;SDS011;2764;48.794;8.326;2023-07-29T03:14:37;1.10;;;1.10;;
5483;SDS011;2764;48.794;8.326;2023-07-29T03:15:39;1.47;;;1.03;;
5483;SDS011;2764;48.794;8.326;2023-07-29T03:16:40;1.27;;;1.00;;
5483;SDS011;2764;48.794;8.326;2023-07-29T03:17:42;5.40;;;1.70;;
5483;SDS011;2764;48.794;8.326;2023-07-29T03:18:44;2.20;;;1.63;;
5483;SDS011;2764;48.794;8.326;2023-07-29T03:19:46;1.93;;;1.30;;
5483;SDS011;2764;48.794;8.326;2023-07-29T03:20:48;2.93;;;1.60;;
5483;SDS011;2764;48.794;8.326;2023-07-29T03:21:50;2.50;;;1.53;;
5483;SDS011;2764;48.794;8.326;2023-07-29T03:22:51;4.43;;;1.50;;
5483;SDS011;2764;48.794;8.326;2023-07-29T03:23:53;3.63;;;1.60;;
5483;SDS011;2764;48.794;8.326;2023-07-29T03:24:55;2.60;;;1.90;;
5483;SDS011;2764;48.794;8.326;2023-07-29T03:25:56;1.93;;;1.67;;
5483;SDS011;2764;48.794;8.326;2023-07-29T03:26:59;2.30;;;2.10;;
5483;SDS011;2764;48.794;8.326;2023-07-29T03:28:01;2.90;;;2.00;;
5483;SDS011;2764;48.794;8.326;2023-07-29T03:29:03;2.20;;;2.10;;
5483;SDS011;2764;48.794;8.326;2023-07-29T03:30:05;1.77;;;1.67;;
5483;SDS011;2764;48.794;8.326;2023-07-29T03:31:07;3.30;;;1.70;;
5483;SDS011;2764;48.794;8.326;2023-07-29T03:32:08;2.10;;;2.00;;
5483;SDS011;2764;48.794;8.326;2023-07-29T03:33:10;2.70;;;2.47;;
5483;SDS011;2764;48.794;8.326;2023-07-29T03:34:11;2.40;;;2.17;;
5483;SDS011;2764;48.794;8.326;2023-07-29T03:35:14;7.00;;;2.20;;
5483;SDS011;2764;48.794;8.326;2023-07-29T03:36:15;2.43;;;2.20;;
5483;SDS011;2764;48.794;8.326;2023-07-29T03:37:17;2.87;;;2.43;;
5483;SDS011;2764;48.794;8.326;2023-07-29T03:38:19;2.97;;;2.73;;
5483;SDS011;2764;48.794;8.326;2023-07-29T03:39:20;2.40;;;2.00;;
5483;SDS011;2764;48.794;8.326;2023-07-29T03:40:22;4.30;;;2.30;;
5483;SDS011;2764;48.794;8.326;2023-07-29T03:41:24;6.30;;;2.60;;
5483;SDS011;2764;48.794;8.326;2023-07-29T03:42:25;5.53;;;2.33;;
5483;SDS011;2764;48.794;8.326;2023-07-29T03:43:27;3.13;;;2.23;;
5483;SDS011;2764;48.794;8.326;2023-07-29T03:44:28;2.87;;;2.60;;
5483;SDS011;2764;48.794;8.326;2023-07-29T03:45:30;5.63;;;2.50;;
5483;SDS011;2764;48.794;8.326;2023-07-29T03:46:32;3.70;;;2.30;;
5483;SDS011;2764;48.794;8.326;2023-07-29T03:47:33;5.53;;;2.87;;
5483;SDS011;2764;48.794;8.326;2023-07-29T03:48:35;2.70;;;2.50;;
5483;SDS011;2764;48.794;8.326;2023-07-29T03:49:37;2.57;;;2.37;;
5483;SDS011;2764;48.794;8.326;2023-07-29T03:50:38;10.90;;;2.57;;
5483;SDS011;2764;48.794;8.326;2023-07-29T03:51:40;3.80;;;2.53;;
5483;SDS011;2764;48.794;8.326;2023-07-29T03:52:42;4.00;;;2.70;;
5483;SDS011;2764;48.794;8.326;2023-07-29T03:53:44;17.87;;;2.80;;
5483;SDS011;2764;48.794;8.326;2023-07-29T03:54:45;3.40;;;3.03;;
5483;SDS011;2764;48.794;8.326;2023-07-29T03:55:47;4.33;;;3.30;;
5483;SDS011;2764;48.794;8.326;2023-07-29T03:56:48;7.77;;;3.10;;
5483;SDS011;2764;48.794;8.326;2023-07-29T03:57:50;3.07;;;2.47;;
5483;SDS011;2764;48.794;8.326;2023-07-29T03:58:52;7.70;;;3.50;;
5483;SDS011;2764;48.794;8.326;2023-07-29T03:59:53;3.10;;;2.90;;
5483;SDS011;2764;48.794;8.326;2023-07-29T04:00:55;3.67;;;3.10;;
5483;SDS011;2764;48.794;8.326;2023-07-29T04:01:57;3.60;;;3.00;;
5483;SDS011;2764;48.794;8.326;2023-07-29T04:02:59;3.67;;;3.00;;
5483;SDS011;2764;48.794;8.326;2023-07-29T04:04:01;5.20;;;2.83;;
5483;SDS011;2764;48.794;8.326;2023-07-29T04:05:03;10.30;;;3.30;;
5483;SDS011;2764;48.794;8.326;2023-07-29T04:06:05;4.67;;;3.03;;
5483;SDS011;2764;48.794;8.326;2023-07-29T04:07:07;10.03;;;2.77;;
5483;SDS011;2764;48.794;8.326;2023-07-29T04:08:08;3.20;;;2.97;;
5483;SDS011;2764;48.794;8.326;2023-07-29T04:09:11;3.40;;;2.73;;
5483;SDS011;2764;48.794;8.326;2023-07-29T04:10:13;3.53;;;3.20;;
5483;SDS011;2764;48.794;8.326;2023-07-29T04:11:14;5.10;;;3.50;;
5483;SDS011;2764;48.794;8.326;2023-07-29T04:12:18;6.23;;;2.87;;
5483;SDS011;2764;48.794;8.326;2023-07-29T04:13:23;13.43;;;3.37;;
5483;SDS011;2764;48.794;8.326;2023-07-29T04:14:25;5.23;;;3.10;;
5483;SDS011;2764;48.794;8.326;2023-07-29T04:15:27;2.83;;;2.67;;
5483;SDS011;2764;48.794;8.326;2023-07-29T04:16:28;7.17;;;3.20;;
5483;SDS011;2764;48.794;8.326;2023-07-29T04:17:30;3.50;;;2.80;;
5483;SDS011;2764;48.794;8.326;2023-07-29T04:18:31;4.80;;;2.93;;
5483;SDS011;2764;48.794;8.326;2023-07-29T04:19:33;5.37;;;2.90;;
5483;SDS011;2764;48.794;8.326;2023-07-29T04:20:35;3.07;;;2.63;;
5483;SDS011;2764;48.794;8.326;2023-07-29T04:21:36;3.43;;;2.70;;
5483;SDS011;2764;48.794;8.326;2023-07-29T04:22:38;2.93;;;2.73;;
5483;SDS011;2764;48.794;8.326;2023-07-29T04:23:40;2.60;;;2.50;;
5483;SDS011;2764;48.794;8.326;2023-07-29T04:24:42;3.00;;;2.80;;
5483;SDS011;2764;48.794;8.326;2023-07-29T04:25:43;4.10;;;3.70;;
5483;SDS011;2764;48.794;8.326;2023-07-29T04:26:45;5.23;;;3.10;;
5483;SDS011;2764;48.794;8.326;2023-07-29T04:27:47;5.53;;;3.17;;
5483;SDS011;2764;48.794;8.326;2023-07-29T04:28:48;4.40;;;3.30;;
5483;SDS011;2764;48.794;8.326;2023-07-29T04:29:50;5.20;;;3.50;;
5483;SDS011;2764;48.794;8.326;2023-07-29T04:30:52;3.33;;;2.97;;
5483;SDS011;2764;48.794;8.326;2023-07-29T04:31:56;5.40;;;3.40;;
5483;SDS011;2764;48.794;8.326;2023-07-29T04:32:58;5.90;;;4.40;;
5483;SDS011;2764;48.794;8.326;2023-07-29T04:33:59;3.40;;;2.87;;
5483;SDS011;2764;48.794;8.326;2023-07-29T04:35:01;4.23;;;2.77;;
5483;SDS011;2764;48.794;8.326;2023-07-29T04:36:03;3.10;;;2.90;;
5483;SDS011;2764;48.794;8.326;2023-07-29T04:37:04;2.93;;;2.60;;
5483;SDS011;2764;48.794;8.326;2023-07-29T04:38:06;8.20;;;3.20;;
5483;SDS011;2764;48.794;8.326;2023-07-29T04:39:08;3.30;;;3.10;;
5483;SDS011;2764;48.794;8.326;2023-07-29T04:40:10;4.00;;;2.47;;
5483;SDS011;2764;48.794;8.326;2023-07-29T04:41:13;3.47;;;2.73;;
5483;SDS011;2764;48.794;8.326;2023-07-29T04:42:15;7.33;;;3.20;;
5483;SDS011;2764;48.794;8.326;2023-07-29T04:43:16;5.50;;;2.70;;
5483;SDS011;2764;48.794;8.326;2023-07-29T04:44:18;3.73;;;3.10;;
5483;SDS011;2764;48.794;8.326;2023-07-29T04:45:19;3.13;;;2.90;;
5483;SDS011;2764;48.794;8.326;2023-07-29T04:46:21;3.17;;;2.93;;
5483;SDS011;2764;48.794;8.326;2023-07-29T04:47:24;3.43;;;2.80;;
5483;SDS011;2764;48.794;8.326;2023-07-29T04:48:27;3.03;;;2.70;;
5483;SDS011;2764;48.794;8.326;2023-07-29T04:49:30;3.13;;;2.80;;
5483;SDS011;2764;48.794;8.326;2023-07-29T04:50:32;2.70;;;2.50;;
5483;SDS011;2764;48.794;8.326;2023-07-29T04:51:34;6.47;;;3.10;;
5483;SDS011;2764;48.794;8.326;2023-07-29T04:52:35;4.50;;;3.10;;
5483;SDS011;2764;48.794;8.326;2023-07-29T04:53:37;3.47;;;2.63;;
5483;SDS011;2764;48.794;8.326;2023-07-29T04:54:39;3.73;;;3.43;;
5483;SDS011;2764;48.794;8.326;2023-07-29T04:55:41;4.80;;;3.50;;
5483;SDS011;2764;48.794;8.326;2023-07-29T04:56:43;3.03;;;2.80;;
5483;SDS011;2764;48.794;8.326;2023-07-29T04:57:45;3.53;;;3.30;;
5483;SDS011;2764;48.794;8.326;2023-07-29T04:58:46;2.60;;;2.50;;
5483;SDS011;2764;48.794;8.326;2023-07-29T04:59:48;3.73;;;2.60;;
5483;SDS011;2764;48.794;8.326;2023-07-29T05:00:49;4.73;;;2.90;;
5483;SDS011;2764;48.794;8.326;2023-07-29T05:01:51;13.43;;;3.30;;
5483;SDS011;2764;48.794;8.326;2023-07-29T05:02:55;2.97;;;2.83;;
5483;SDS011;2764;48.794;8.326;2023-07-29T05:03:57;2.57;;;2.37;;
5483;SDS011;2764;48.794;8.326;2023-07-29T05:04:58;4.50;;;2.97;;
5483;SDS011;2764;48.794;8.326;2023-07-29T05:06:00;3.00;;;2.70;;
5483;SDS011;2764;48.794;8.326;2023-07-29T05:07:02;3.13;;;2.63;;
5483;SDS011;2764;48.794;8.326;2023-07-29T05:08:04;2.70;;;2.50;;
5483;SDS011;2764;48.794;8.326;2023-07-29T05:09:12;7.40;;;3.10;;
5483;SDS011;2764;48.794;8.326;2023-07-29T05:10:13;5.00;;;3.33;;
5483;SDS011;2764;48.794;8.326;2023-07-29T05:11:15;3.80;;;3.50;;
5483;SDS011;2764;48.794;8.326;2023-07-29T05:12:17;5.57;;;3.00;;
5483;SDS011;2764;48.794;8.326;2023-07-29T05:13:19;3.10;;;2.80;;
5483;SDS011;2764;48.794;8.326;2023-07-29T05:14:20;3.63;;;2.60;;
5483;SDS011;2764;48.794;8.326;2023-07-29T05:15:22;5.13;;;3.60;;
5483;SDS011;2764;48.794;8.326;2023-07-29T05:16:24;11.70;;;2.87;;
5483;SDS011;2764;48.794;8.326;2023-07-29T05:17:26;7.90;;;3.53;;
5483;SDS011;2764;48.794;8.326;2023-07-29T05:18:28;3.07;;;2.90;;
5483;SDS011;2764;48.794;8.326;2023-07-29T05:19:29;4.70;;;3.17;;
5483;SDS011;2764;48.794;8.326;2023-07-29T05:20:32;5.10;;;2.87;;
5483;SDS011;2764;48.794;8.326;2023-07-29T05:21:33;4.50;;;3.00;;
5483;SDS011;2764;48.794;8.326;2023-07-29T05:22:35;3.80;;;2.83;;
5483;SDS011;2764;48.794;8.326;2023-07-29T05:23:37;5.63;;;3.77;;
5483;SDS011;2764;48.794;8.326;2023-07-29T05:24:38;3.83;;;3.07;;
5483;SDS011;2764;48.794;8.326;2023-07-29T05:25:40;3.23;;;3.03;;
5483;SDS011;2764;48.794;8.326;2023-07-29T05:26:41;4.10;;;2.83;;
5483;SDS011;2764;48.794;8.326;2023-07-29T05:27:43;7.23;;;3.10;;
5483;SDS011;2764;48.794;8.326;2023-07-29T05:28:45;3.63;;;2.90;;
5483;SDS011;2764;48.794;8.326;2023-07-29T05:29:47;7.20;;;3.20;;
5483;SDS011;2764;48.794;8.326;2023-07-29T05:30:48;4.90;;;2.80;;
5483;SDS011;2764;48.794;8.326;2023-07-29T05:31:50;3.43;;;2.80;;
5483;SDS011;2764;48.794;8.326;2023-07-29T05:32:52;2.40;;;2.23;;
5483;SDS011;2764;48.794;8.326;2023-07-29T05:33:53;5.00;;;3.13;;
5483;SDS011;2764;48.794;8.326;2023-07-29T05:34:55;15.67;;;2.77;;
5483;SDS011;2764;48.794;8.326;2023-07-29T05:35:57;3.07;;;2.90;;
5483;SDS011;2764;48.794;8.326;2023-07-29T05:36:58;5.20;;;3.13;;
5483;SDS011;2764;48.794;8.326;2023-07-29T05:38:00;5.90;;;3.10;;
5483;SDS011;2764;48.794;8.326;2023-07-29T05:39:01;4.57;;;3.50;;
5483;SDS011;2764;48.794;8.326;2023-07-29T05:40:03;6.13;;;3.10;;
5483;SDS011;2764;48.794;8.326;2023-07-29T05:41:05;7.90;;;3.20;;
5483;SDS011;2764;48.794;8.326;2023-07-29T05:42:06;3.40;;;3.10;;
5483;SDS011;2764;48.794;8.326;2023-07-29T05:43:09;4.50;;;3.10;;
5483;SDS011;2764;48.794;8.326;2023-07-29T05:44:11;5.63;;;3.20;;
5483;SDS011;2764;48.794;8.326;2023-07-29T05:45:12;3.37;;;2.67;;
5483;SDS011;2764;48.794;8.326;2023-07-29T05:46:14;3.53;;;3.30;;
5483;SDS011;2764;48.794;8.326;2023-07-29T05:47:16;2.80;;;2.70;;
5483;SDS011;2764;48.794;8.326;2023-07-29T05:48:19;3.70;;;2.77;;
5483;SDS011;2764;48.794;8.326;2023-07-29T05:49:21;5.17;;;3.23;;
5483;SDS011;2764;48.794;8.326;2023-07-29T05:50:22;2.67;;;2.47;;
5483;SDS011;2764;48.794;8.326;2023-07-29T05:51:27;2.87;;;2.73;;
5483;SDS011;2764;48.794;8.326;2023-07-29T05:52:29;7.10;;;2.80;;
5483;SDS011;2764;48.794;8.326;2023-07-29T05:53:31;2.70;;;2.50;;
5483;SDS011;2764;48.794;8.326;2023-07-29T05:54:32;3.13;;;2.53;;
5483;SDS011;2764;48.794;8.326;2023-07-29T05:55:34;4.73;;;2.90;;
5483;SDS011;2764;48.794;8.326;2023-07-29T05:56:36;5.47;;;3.23;;
5483;SDS011;2764;48.794;8.326;2023-07-29T05:57:38;3.10;;;2.80;;
5483;SDS011;2764;48.794;8.326;2023-07-29T05:58:43;5.70;;;2.83;;
5483;SDS011;2764;48.794;8.326;2023-07-29T05:59:45;5.10;;;2.93;;
5483;SDS011;2764;48.794;8.326;2023-07-29T06:00:47;5.03;;;2.80;;
5483;SDS011;2764;48.794;8.326;2023-07-29T06:01:49;3.20;;;3.00;;
5483;SDS011;2764;48.794;8.326;2023-07-29T06:02:50;3.23;;;3.00;;
5483;SDS011;2764;48.794;8.326;2023-07-29T06:03:52;3.50;;;3.30;;
5483;SDS011;2764;48.794;8.326;2023-07-29T06:04:54;2.73;;;2.63;;
5483;SDS011;2764;48.794;8.326;2023-07-29T06:05:56;3.67;;;2.73;;
5483;SDS011;2764;48.794;8.326;2023-07-29T06:06:58;15.07;;;2.60;;
5483;SDS011;2764;48.794;8.326;2023-07-29T06:07:59;3.17;;;2.97;;
5483;SDS011;2764;48.794;8.326;2023-07-29T06:09:01;3.10;;;2.90;;
5483;SDS011;2764;48.794;8.326;2023-07-29T06:10:03;3.07;;;2.97;;
5483;SDS011;2764;48.794;8.326;2023-07-29T06:11:05;3.17;;;2.70;;
5483;SDS011;2764;48.794;8.326;2023-07-29T06:12:09;2.90;;;2.63;;
5483;SDS011;2764;48.794;8.326;2023-07-29T06:13:11;2.67;;;2.20;;
5483;SDS011;2764;48.794;8.326;2023-07-29T06:14:13;2.03;;;1.93;;
5483;SDS011;2764;48.794;8.326;2023-07-29T06:15:14;2.67;;;2.50;;
5483;SDS011;2764;48.794;8.326;2023-07-29T06:16:16;2.47;;;2.10;;
5483;SDS011;2764;48.794;8.326;2023-07-29T06:17:18;2.27;;;2.17;;
5483;SDS011;2764;48.794;8.326;2023-07-29T06:18:19;2.47;;;2.37;;
5483;SDS011;2764;48.794;8.326;2023-07-29T06:19:21;4.33;;;2.47;;
5483;SDS011;2764;48.794;8.326;2023-07-29T06:20:23;2.50;;;2.40;;
5483;SDS011;2764;48.794;8.326;2023-07-29T06:21:24;2.73;;;2.50;;
5483;SDS011;2764;48.794;8.326;2023-07-29T06:22:26;2.10;;;2.00;;
5483;SDS011;2764;48.794;8.326;2023-07-29T06:23:28;2.40;;;2.30;;
5483;SDS011;2764;48.794;8.326;2023-07-29T06:24:29;2.60;;;2.40;;
5483;SDS011;2764;48.794;8.326;2023-07-29T06:25:31;8.20;;;3.20;;
5483;SDS011;2764;48.794;8.326;2023-07-29T06:26:32;6.73;;;2.93;;
5483;SDS011;2764;48.794;8.326;2023-07-29T06:27:35;2.80;;;2.60;;
5483;SDS011;2764;48.794;8.326;2023-07-29T06:28:36;3.57;;;2.23;;
5483;SDS011;2764;48.794;8.326;2023-07-29T06:29:38;2.60;;;2.40;;
5483;SDS011;2764;48.794;8.326;2023-07-29T06:30:40;3.13;;;2.03;;
5483;SDS011;2764;48.794;8.326;2023-07-29T06:31:42;5.80;;;2.53;;